Time;durP1;ratioP1;P1;durP2;ratioP2;P2;SDS_P1;SDS_P2;PMS_P1;PMS_P2;Temp;Humidity;BMP_temperature;BMP_pressure;BME280_temperature;BME280_humidity;BME280_pressure;Samples;Min_cycle;Max_cycle;Signal;HPM_P1;HPM_P2
2022/11/25 00:01:41;;;;;;;18.88;14.70;;;11.00;89.30;;;;;;5070304;28;20146;-87
2022/11/25 00:04:07;;;;;;;19.50;13.95;;;11.00;89.00;;;;;;5061953;28;20484;-85
2022/11/25 00:06:34;;;;;;;24.63;15.65;;;11.00;89.10;;;;;;5066707;28;20020;-85
2022/11/25 00:09:05;;;;;;;22.65;13.45;;;11.00;89.10;;;;;;5053909;28;20029;-85
2022/11/25 00:11:38;;;;;;;27.13;15.88;;;11.00;89.20;;;;;;5070815;28;20067;-83
2022/11/25 00:14:04;;;;;;;20.00;14.48;;;10.90;89.20;;;;;;5051529;28;20040;-83
2022/11/25 00:16:30;;;;;;;20.80;14.05;;;10.90;89.20;;;;;;5061791;28;20025;-83
2022/11/25 00:18:56;;;;;;;22.13;15.07;;;11.00;89.40;;;;;;5065845;28;20028;-83
2022/11/25 00:21:25;;;;;;;24.95;15.88;;;11.00;89.40;;;;;;5065840;28;20049;-82
2022/11/25 00:23:58;;;;;;;20.08;13.70;;;11.00;89.30;;;;;;5062673;28;20129;-82
2022/11/25 00:26:25;;;;;;;20.75;14.93;;;10.90;89.30;;;;;;5072367;28;20477;-85
2022/11/25 00:28:52;;;;;;;22.10;14.63;;;10.90;89.40;;;;;;5054606;28;20424;-87
2022/11/25 00:31:23;;;;;;;24.65;14.63;;;10.90;89.40;;;;;;5054270;28;20400;-84
2022/11/25 00:33:50;;;;;;;21.90;14.50;;;10.90;89.50;;;;;;5070559;28;20127;-84
2022/11/25 00:36:23;;;;;;;16.40;12.18;;;10.80;89.30;;;;;;5073296;28;20036;-84
2022/11/25 00:39:10;;;;;;;21.52;14.85;;;10.90;89.50;;;;;;5064724;28;20029;-82
2022/11/25 00:44:36;;;;;;;19.05;12.25;;;10.80;89.30;;;;;;5069806;28;20113;-82
2022/11/25 00:47:11;;;;;;;17.80;11.85;;;10.80;89.00;;;;;;5063662;28;20044;-84
2022/11/25 00:49:38;;;;;;;20.83;13.02;;;10.80;88.80;;;;;;5059878;28;20024;-85
2022/11/25 00:52:04;;;;;;;24.35;14.35;;;10.70;89.00;;;;;;5060156;28;20040;-84
2022/11/25 00:54:30;;;;;;;21.13;12.55;;;10.70;88.70;;;;;;5064961;28;20024;-84
2022/11/25 00:56:56;;;;;;;21.40;13.98;;;10.60;88.90;;;;;;5062540;28;20063;-85
2022/11/25 00:59:22;;;;;;;20.55;14.38;;;10.60;89.10;;;;;;5070420;28;20040;-85
2022/11/25 01:01:48;;;;;;;26.05;16.25;;;10.60;89.10;;;;;;5059995;28;20036;-85
2022/11/25 01:04:15;;;;;;;18.30;13.05;;;10.60;89.10;;;;;;5061044;28;20013;-85
2022/11/25 01:06:41;;;;;;;19.63;12.52;;;10.60;89.10;;;;;;5060002;28;20473;-87
2022/11/25 01:09:08;;;;;;;17.35;12.63;;;10.50;89.10;;;;;;5073145;28;20028;-88
2022/11/25 01:11:34;;;;;;;21.58;14.02;;;10.60;89.30;;;;;;5072756;28;20040;-88
2022/11/25 01:13:59;;;;;;;20.02;13.48;;;10.60;89.20;;;;;;5059714;28;20025;-87
2022/11/25 01:16:25;;;;;;;19.58;12.90;;;10.60;89.10;;;;;;5058538;28;20453;-88
2022/11/25 01:18:51;;;;;;;16.95;11.75;;;10.60;88.80;;;;;;5066086;28;20542;-88
2022/11/25 01:21:23;;;;;;;17.55;12.18;;;10.60;88.50;;;;;;5070153;28;20053;-88
2022/11/25 01:23:49;;;;;;;22.25;13.80;;;10.60;88.70;;;;;;5073269;28;20029;-86
2022/11/25 01:26:20;;;;;;;18.00;11.95;;;10.60;88.20;;;;;;5068451;28;20100;-88
2022/11/25 01:28:46;;;;;;;17.40;11.40;;;10.60;88.40;;;;;;5064578;28;20033;-88
2022/11/25 01:31:16;;;;;;;15.90;11.00;;;10.60;88.40;;;;;;5073737;28;20033;-87
2022/11/25 01:33:42;;;;;;;15.70;10.95;;;10.70;88.30;;;;;;5054610;28;20452;-87
2022/11/25 01:36:15;;;;;;;16.60;10.75;;;10.60;88.70;;;;;;5071144;28;20037;-88
2022/11/25 01:38:41;;;;;;;19.25;12.27;;;10.60;88.20;;;;;;5054985;28;20390;-90
2022/11/25 01:41:10;;;;;;;15.30;11.05;;;10.60;88.10;;;;;;5072005;28;20043;-89
2022/11/25 01:43:36;;;;;;;13.60;10.10;;;10.60;88.10;;;;;;5069838;28;20032;-80
2022/11/25 01:46:19;;;;;;;16.42;11.60;;;10.70;88.10;;;;;;5063341;28;20029;-80
2022/11/25 01:48:55;;;;;;;16.83;10.70;;;10.70;88.00;;;;;;5045464;28;20108;-81
2022/11/25 01:51:28;;;;;;;15.98;10.75;;;10.70;87.70;;;;;;5066939;28;20063;-81
2022/11/25 01:53:58;;;;;;;18.48;10.80;;;10.70;87.60;;;;;;5058696;28;20028;-83
2022/11/25 01:56:27;;;;;;;14.90;10.95;;;10.70;87.60;;;;;;5070871;28;20431;-82
2022/11/25 01:58:53;;;;;;;14.65;10.52;;;10.70;87.50;;;;;;5054560;28;20025;-81
2022/11/25 02:01:20;;;;;;;12.57;8.98;;;10.60;86.40;;;;;;5068824;28;20036;-80
2022/11/25 02:03:50;;;;;;;13.35;9.48;;;10.60;87.20;;;;;;5067170;28;20027;-80
2022/11/25 02:06:27;;;;;;;15.52;9.82;;;10.50;87.30;;;;;;5074144;28;20181;-81
2022/11/25 02:08:57;;;;;;;13.98;9.90;;;10.50;87.20;;;;;;5070062;28;20024;-81
2022/11/25 02:11:26;;;;;;;13.73;9.45;;;10.50;87.20;;;;;;5069170;28;20492;-81
2022/11/25 02:13:52;;;;;;;13.43;9.27;;;10.60;87.10;;;;;;5041300;28;20051;-81
2022/11/25 02:16:18;;;;;;;12.57;8.80;;;10.60;87.10;;;;;;5073836;28;20032;-81
2022/11/25 02:18:44;;;;;;;11.77;9.05;;;10.60;87.10;;;;;;5044959;28;20039;-81
2022/11/25 02:21:12;;;;;;;12.18;8.80;;;10.60;87.00;;;;;;5074444;28;20522;-82
2022/11/25 02:23:55;;;;;;;13.07;8.57;;;10.60;86.80;;;;;;5068788;28;20373;-80
2022/11/25 02:26:21;;;;;;;13.07;9.32;;;10.60;86.80;;;;;;5066055;28;20071;-82
2022/11/25 02:28:47;;;;;;;13.02;9.48;;;10.60;86.80;;;;;;5072740;28;20052;-81
2022/11/25 02:31:19;;;;;;;13.93;9.35;;;10.70;86.80;;;;;;5073484;28;20029;-81
2022/11/25 02:33:45;;;;;;;12.15;9.18;;;10.60;86.60;;;;;;5069069;28;20037;-81
2022/11/25 02:36:14;;;;;;;12.65;9.20;;;10.60;86.50;;;;;;5066591;28;20033;-80
2022/11/25 02:38:58;;;;;;;13.32;8.90;;;10.70;86.60;;;;;;5072299;28;20021;-81
2022/11/25 02:41:43;;;;;;;13.85;9.02;;;10.60;86.60;;;;;;5051586;28;20066;-82
2022/11/25 02:44:08;;;;;;;12.48;9.05;;;10.70;86.50;;;;;;5068349;28;20408;-80
2022/11/25 02:46:35;;;;;;;13.88;9.35;;;10.60;86.50;;;;;;5073967;28;20111;-81
2022/11/25 02:49:01;;;;;;;11.82;8.40;;;10.60;86.50;;;;;;5061200;28;20727;-82
2022/11/25 02:51:29;;;;;;;14.52;9.75;;;10.60;86.50;;;;;;5062630;28;20529;-82
2022/11/25 02:53:55;;;;;;;13.60;9.18;;;10.60;86.50;;;;;;5070200;28;20039;-81
2022/11/25 02:56:25;;;;;;;10.63;8.52;;;10.70;86.60;;;;;;5069270;28;20459;-80
2022/11/25 02:58:51;;;;;;;12.52;8.77;;;10.60;86.70;;;;;;5063643;28;20039;-80
2022/11/25 03:01:16;;;;;;;11.02;8.75;;;10.60;86.70;;;;;;5062800;28;20037;-79
2022/11/25 03:03:42;;;;;;;11.90;8.30;;;10.60;86.70;;;;;;5070213;28;20035;-81
2022/11/25 03:06:08;;;;;;;12.73;7.90;;;10.60;86.60;;;;;;5070276;28;20040;-80
2022/11/25 03:08:34;;;;;;;10.80;8.02;;;10.60;86.70;;;;;;5072455;28;20056;-79
2022/11/25 03:11:00;;;;;;;13.63;9.23;;;10.60;86.80;;;;;;5073829;28;20028;-82
2022/11/25 03:13:26;;;;;;;10.65;8.27;;;10.50;86.70;;;;;;5068783;28;20028;-82
2022/11/25 03:15:51;;;;;;;12.65;8.32;;;10.50;86.80;;;;;;5072135;28;20033;-83
2022/11/25 03:18:17;;;;;;;11.30;7.38;;;10.60;86.70;;;;;;5072140;28;20032;-82
2022/11/25 03:20:43;;;;;;;10.60;7.65;;;10.60;86.80;;;;;;5047672;28;20055;-82
2022/11/25 03:23:09;;;;;;;10.95;7.38;;;10.60;86.80;;;;;;5063550;28;20020;-83
2022/11/25 03:25:35;;;;;;;11.23;7.70;;;10.60;86.80;;;;;;5072654;28;20385;-84
2022/11/25 03:28:01;;;;;;;10.02;6.80;;;10.60;86.80;;;;;;5067033;28;20100;-81
2022/11/25 03:30:28;;;;;;;11.02;7.43;;;10.60;86.90;;;;;;5065551;28;20033;-81
2022/11/25 03:32:54;;;;;;;12.98;8.18;;;10.50;86.70;;;;;;5073714;28;20115;-80
2022/11/25 03:35:20;;;;;;;9.55;6.60;;;10.50;86.60;;;;;;5073076;28;20115;-80
2022/11/25 03:37:46;;;;;;;11.52;7.38;;;10.50;86.80;;;;;;5073280;28;20426;-83
2022/11/25 03:40:14;;;;;;;9.05;6.90;;;10.50;86.70;;;;;;5064205;28;20454;-81
2022/11/25 03:42:40;;;;;;;11.13;7.55;;;10.60;86.50;;;;;;5069791;28;20021;-81
2022/11/25 03:45:07;;;;;;;12.63;9.13;;;10.60;86.80;;;;;;5069452;28;20044;-82
2022/11/25 03:47:33;;;;;;;11.50;8.90;;;10.60;86.30;;;;;;5062566;28;20025;-82
2022/11/25 03:49:58;;;;;;;13.23;8.65;;;10.50;86.50;;;;;;5067880;28;20036;-82
2022/11/25 03:52:24;;;;;;;15.77;10.27;;;10.50;86.50;;;;;;5073233;28;20028;-82
2022/11/25 03:54:50;;;;;;;12.93;9.48;;;10.40;86.30;;;;;;5054023;28;20024;-82
2022/11/25 03:57:16;;;;;;;11.93;9.07;;;10.30;86.70;;;;;;5072887;28;20101;-82
2022/11/25 03:59:41;;;;;;;13.15;9.50;;;10.30;87.00;;;;;;5066754;28;20178;-81
2022/11/25 04:02:07;;;;;;;10.75;8.35;;;10.30;87.10;;;;;;5069735;28;20124;-82
2022/11/25 04:04:34;;;;;;;14.73;10.35;;;10.20;87.10;;;;;;5052008;28;20458;-81
2022/11/25 04:07:00;;;;;;;14.07;9.60;;;10.00;87.50;;;;;;5051696;28;20031;-82
2022/11/25 04:09:26;;;;;;;13.15;8.25;;;9.80;88.10;;;;;;5066312;28;20377;-81
2022/11/25 04:14:36;;;;;;;11.93;7.90;;;9.70;88.50;;;;;;5072199;28;20039;-80
2022/11/25 04:17:02;;;;;;;10.10;7.03;;;9.80;88.40;;;;;;5068613;28;20033;-80
2022/11/25 04:19:27;;;;;;;11.15;8.00;;;9.80;88.40;;;;;;5058716;28;20044;-82
2022/11/25 04:21:53;;;;;;;9.68;7.97;;;9.90;88.40;;;;;;5059318;28;20036;-80
2022/11/25 04:24:20;;;;;;;8.77;6.72;;;10.00;88.20;;;;;;5069015;28;20035;-78
2022/11/25 04:26:46;;;;;;;11.80;7.20;;;10.00;88.00;;;;;;5072511;28;20253;-91
2022/11/25 04:29:14;;;;;;;8.55;6.55;;;10.10;87.60;;;;;;5073055;28;20028;-90
2022/11/25 04:31:40;;;;;;;10.02;7.93;;;10.00;87.70;;;;;;5074919;28;20025;-90
2022/11/25 04:34:05;;;;;;;10.07;7.30;;;9.80;86.90;;;;;;5073978;28;20043;-90
2022/11/25 04:36:31;;;;;;;9.57;6.72;;;9.70;87.50;;;;;;5071380;28;20021;-79
2022/11/25 04:38:57;;;;;;;10.63;7.63;;;9.80;87.70;;;;;;5061831;28;20060;-79
2022/11/25 04:41:23;;;;;;;12.05;8.13;;;9.70;87.70;;;;;;5068081;28;20028;-86
2022/11/25 04:43:48;;;;;;;9.73;6.63;;;9.70;87.70;;;;;;5069485;28;20040;-88
2022/11/25 04:46:21;;;;;;;9.32;6.32;;;9.60;87.90;;;;;;5065939;28;20029;-85
2022/11/25 04:48:47;;;;;;;8.90;6.68;;;9.60;87.80;;;;;;5065930;28;20039;-85
2022/11/25 04:51:12;;;;;;;10.02;6.82;;;9.60;87.80;;;;;;5056986;28;20041;-83
2022/11/25 04:53:38;;;;;;;9.75;6.60;;;9.70;87.80;;;;;;5060075;28;20032;-84
2022/11/25 04:56:04;;;;;;;8.95;6.68;;;9.80;87.60;;;;;;5062516;28;20040;-86
2022/11/25 05:01:14;;;;;;;9.57;6.35;;;10.00;87.30;;;;;;5069971;28;20379;-83
2022/11/25 05:03:40;;;;;;;9.77;6.72;;;10.00;87.00;;;;;;5047855;28;20024;-88
2022/11/25 05:06:09;;;;;;;9.98;6.00;;;10.10;87.00;;;;;;5070401;28;20025;-89
2022/11/25 05:08:35;;;;;;;7.78;6.45;;;10.10;87.00;;;;;;5064310;28;20512;-87
2022/11/25 05:11:01;;;;;;;8.90;6.80;;;10.10;87.10;;;;;;5070649;28;20449;-87
2022/11/25 05:13:26;;;;;;;10.48;7.40;;;10.10;87.20;;;;;;5068675;28;20040;-86
2022/11/25 05:15:52;;;;;;;8.70;6.72;;;10.10;87.20;;;;;;5069354;28;20029;-85
2022/11/25 05:18:18;;;;;;;8.20;6.32;;;10.00;87.30;;;;;;5070663;28;20030;-86
2022/11/25 05:20:44;;;;;;;9.77;7.25;;;10.00;87.30;;;;;;5071232;28;20086;-86
2022/11/25 05:23:10;;;;;;;9.90;6.75;;;10.00;87.50;;;;;;5071399;28;20035;-87
2022/11/25 05:25:36;;;;;;;14.10;8.25;;;9.90;87.60;;;;;;5070994;28;20036;-87
2022/11/25 05:28:02;;;;;;;11.20;7.45;;;9.80;88.00;;;;;;5063746;28;20083;-82
2022/11/25 05:30:28;;;;;;;9.82;7.00;;;9.70;88.00;;;;;;5045035;28;20025;-81
2022/11/25 05:32:54;;;;;;;9.07;7.00;;;9.70;88.20;;;;;;5046625;28;20038;-85
2022/11/25 05:35:20;;;;;;;12.05;6.40;;;9.80;88.20;;;;;;5069842;28;20702;-88
2022/11/25 05:37:46;;;;;;;10.75;8.10;;;9.80;88.30;;;;;;5072821;28;20039;-83
2022/11/25 05:40:12;;;;;;;10.32;7.45;;;9.70;88.20;;;;;;5068697;28;20401;-83
2022/11/25 05:42:38;;;;;;;9.25;6.22;;;9.60;88.50;;;;;;5063830;28;20085;-82
2022/11/25 05:45:04;;;;;;;8.82;6.30;;;9.60;88.70;;;;;;5067534;28;20037;-80
2022/11/25 05:47:30;;;;;;;8.43;6.13;;;9.50;88.70;;;;;;5068176;28;20017;-80
2022/11/25 05:49:55;;;;;;;8.52;6.00;;;9.50;88.90;;;;;;5058307;28;20478;-79
2022/11/25 05:52:21;;;;;;;8.88;6.10;;;9.60;88.70;;;;;;5070741;28;20556;-80
2022/11/25 05:54:47;;;;;;;11.70;6.22;;;9.70;88.70;;;;;;5070056;28;20029;-80
2022/11/25 05:57:12;;;;;;;8.13;5.60;;;9.80;88.50;;;;;;5062729;28;20031;-79
2022/11/25 05:59:38;;;;;;;10.45;6.47;;;9.90;88.10;;;;;;5065879;28;20059;-78
2022/11/25 06:02:06;;;;;;;11.40;6.88;;;9.80;87.70;;;;;;5064810;28;20035;-79
2022/11/25 06:04:32;;;;;;;10.98;6.82;;;9.70;87.50;;;;;;5058388;28;20029;-79
2022/11/25 06:06:58;;;;;;;7.80;5.40;;;9.50;88.00;;;;;;5067568;28;20032;-79
2022/11/25 06:09:24;;;;;;;7.75;5.43;;;9.60;88.20;;;;;;5066890;28;20481;-78
2022/11/25 06:11:49;;;;;;;7.90;5.82;;;9.60;88.20;;;;;;5066349;28;20035;-79
2022/11/25 06:14:19;;;;;;;8.93;6.50;;;9.50;87.90;;;;;;5065119;28;20032;-80
2022/11/25 06:16:44;;;;;;;12.73;6.47;;;9.40;88.20;;;;;;5062372;28;20171;-79
2022/11/25 06:19:10;;;;;;;16.38;5.85;;;9.40;88.40;;;;;;5060725;28;20126;-79
2022/11/25 06:21:36;;;;;;;13.35;7.10;;;9.50;88.00;;;;;;5064716;28;20045;-79
2022/11/25 06:24:02;;;;;;;8.15;4.47;;;9.40;87.70;;;;;;5061054;28;20034;-80
2022/11/25 06:26:27;;;;;;;8.25;5.47;;;9.40;88.20;;;;;;5066754;28;20032;-78
2022/11/25 06:28:54;;;;;;;9.50;6.22;;;9.50;88.40;;;;;;5050787;28;20033;-78
2022/11/25 06:31:22;;;;;;;10.43;7.50;;;9.50;88.70;;;;;;5064657;28;20489;-78
2022/11/25 06:33:52;;;;;;;12.48;8.20;;;9.30;89.10;;;;;;5059396;28;20032;-78
2022/11/25 06:36:19;;;;;;;10.15;7.70;;;9.30;89.90;;;;;;5064173;28;20045;-78
2022/11/25 06:38:50;;;;;;;10.15;6.78;;;9.30;89.80;;;;;;5071105;28;20024;-78
2022/11/25 06:41:16;;;;;;;9.48;6.95;;;9.30;89.90;;;;;;5063721;28;20050;-80
2022/11/25 06:43:42;;;;;;;11.27;6.03;;;9.40;89.60;;;;;;5069578;28;20521;-80
2022/11/25 06:46:12;;;;;;;9.05;6.28;;;9.40;89.40;;;;;;5073105;28;20107;-80
2022/11/25 06:48:38;;;;;;;8.80;6.53;;;9.50;89.20;;;;;;5063240;28;20100;-79
2022/11/25 06:51:07;;;;;;;11.57;7.25;;;9.60;89.20;;;;;;5071677;28;20499;-79
2022/11/25 06:53:33;;;;;;;9.65;6.03;;;9.70;89.00;;;;;;5074684;28;20060;-80
2022/11/25 06:56:05;;;;;;;6.45;4.60;;;9.70;88.00;;;;;;5069021;28;20028;-79
2022/11/25 06:58:31;;;;;;;8.48;5.43;;;9.80;88.40;;;;;;5067038;28;20039;-80
2022/11/25 07:01:05;;;;;;;7.72;6.38;;;9.90;88.10;;;;;;5073427;28;20037;-80
2022/11/25 07:03:31;;;;;;;7.70;5.28;;;9.70;87.00;;;;;;5066148;28;20052;-79
2022/11/25 07:05:57;;;;;;;7.72;5.10;;;9.70;87.70;;;;;;5055934;28;20410;-79
2022/11/25 07:08:24;;;;;;;7.60;5.07;;;9.70;87.30;;;;;;5060381;28;20025;-80
2022/11/25 07:10:51;;;;;;;9.48;5.57;;;9.70;87.00;;;;;;5059505;28;20116;-79
2022/11/25 07:13:16;;;;;;;6.30;4.55;;;9.70;87.20;;;;;;5072619;28;20036;-78
2022/11/25 07:15:42;;;;;;;8.15;5.47;;;9.80;87.50;;;;;;5062884;28;20087;-79
2022/11/25 07:18:08;;;;;;;9.40;4.88;;;9.80;87.20;;;;;;5069779;28;20056;-76
2022/11/25 07:20:33;;;;;;;7.18;4.78;;;9.90;87.10;;;;;;5073472;28;20056;-78
2022/11/25 07:22:59;;;;;;;6.35;4.70;;;9.90;87.00;;;;;;5072269;28;20087;-77
2022/11/25 07:25:25;;;;;;;7.55;5.03;;;10.00;87.10;;;;;;5065002;28;20040;-80
2022/11/25 07:27:50;;;;;;;7.72;5.05;;;10.10;87.20;;;;;;5067108;28;20057;-81
2022/11/25 07:30:16;;;;;;;11.07;6.43;;;10.20;86.80;;;;;;5066830;28;20037;-81
2022/11/25 07:32:42;;;;;;;7.45;4.35;;;10.30;86.60;;;;;;5067517;28;20021;-78
2022/11/25 07:35:08;;;;;;;7.35;4.95;;;10.30;86.20;;;;;;5062785;28;20135;-79
2022/11/25 07:37:34;;;;;;;8.63;5.78;;;10.30;85.80;;;;;;5072816;28;20104;-79
2022/11/25 07:39:59;;;;;;;9.23;5.57;;;10.20;85.70;;;;;;5073252;28;20590;-79
2022/11/25 07:42:25;;;;;;;6.97;4.93;;;10.30;86.10;;;;;;5070060;28;20029;-79
2022/11/25 07:44:51;;;;;;;6.45;4.50;;;10.30;86.10;;;;;;5051212;28;20116;-80
2022/11/25 07:47:17;;;;;;;6.70;4.85;;;10.40;86.20;;;;;;5045813;28;20047;-82
2022/11/25 07:49:42;;;;;;;13.18;4.35;;;10.50;86.10;;;;;;5047476;28;20292;-82
2022/11/25 07:52:08;;;;;;;5.97;4.38;;;10.50;85.70;;;;;;5064863;28;20036;-78
2022/11/25 07:54:34;;;;;;;7.50;5.15;;;10.50;85.60;;;;;;5060752;28;20037;-79
2022/11/25 07:57:00;;;;;;;7.55;4.47;;;10.50;85.00;;;;;;5065480;28;20036;-79
2022/11/25 07:59:25;;;;;;;7.30;5.00;;;10.60;84.90;;;;;;5064812;28;20082;-79
2022/11/25 08:01:52;;;;;;;8.50;4.80;;;10.60;84.90;;;;;;5062597;28;20028;-80
2022/11/25 08:04:19;;;;;;;6.82;4.93;;;10.60;84.80;;;;;;5068075;28;20097;-79
2022/11/25 08:06:46;;;;;;;14.60;7.22;;;10.80;85.20;;;;;;5050850;28;20020;-80
2022/11/25 08:09:18;;;;;;;7.70;4.70;;;10.70;84.00;;;;;;5066749;28;20555;-79
2022/11/25 08:11:44;;;;;;;7.30;4.32;;;10.70;84.80;;;;;;5061043;28;20154;-79
2022/11/25 08:14:10;;;;;;;8.70;4.97;;;10.80;84.70;;;;;;5059061;28;20029;-82
2022/11/25 08:16:37;;;;;;;8.05;4.18;;;10.80;84.30;;;;;;5061675;28;20505;-77
2022/11/25 08:19:05;;;;;;;5.75;3.75;;;10.90;84.80;;;;;;5068681;28;20512;-77
2022/11/25 08:21:30;;;;;;;7.70;4.13;;;11.00;85.10;;;;;;5069176;28;20052;-77
2022/11/25 08:23:56;;;;;;;7.60;3.80;;;11.10;85.20;;;;;;5062159;28;20025;-77
2022/11/25 08:26:25;;;;;;;6.03;4.18;;;11.20;85.20;;;;;;5064734;28;20037;-77
2022/11/25 08:28:53;;;;;;;6.65;3.83;;;11.30;84.90;;;;;;5059538;28;20096;-77
2022/11/25 08:31:28;;;;;;;6.20;4.00;;;11.40;84.90;;;;;;5069891;28;20060;-78
2022/11/25 08:33:54;;;;;;;6.25;4.20;;;11.60;85.20;;;;;;5067316;28;20068;-77
2022/11/25 08:36:21;;;;;;;7.15;4.22;;;11.80;85.50;;;;;;5069287;28;20465;-76
2022/11/25 08:38:49;;;;;;;5.68;3.85;;;12.00;85.50;;;;;;5061393;28;20374;-78
2022/11/25 08:41:22;;;;;;;4.88;3.65;;;12.10;83.70;;;;;;5059692;28;20488;-78
2022/11/25 08:43:48;;;;;;;6.10;4.18;;;12.20;84.20;;;;;;5045918;28;20079;-78
2022/11/25 08:46:16;;;;;;;9.43;4.53;;;12.20;83.50;;;;;;5057271;28;20032;-77
2022/11/25 08:48:43;;;;;;;13.73;5.30;;;12.20;83.40;;;;;;5055108;28;20026;-78
2022/11/25 08:51:17;;;;;;;7.47;4.65;;;12.20;83.20;;;;;;5035146;28;20036;-78
2022/11/25 08:53:44;;;;;;;4.72;3.60;;;12.20;83.70;;;;;;5043201;28;20743;-78
2022/11/25 08:56:10;;;;;;;11.38;3.90;;;12.30;83.80;;;;;;5045620;28;20046;-78
2022/11/25 08:58:36;;;;;;;5.90;3.38;;;12.30;83.80;;;;;;5046709;28;22072;-78
2022/11/25 09:01:03;;;;;;;8.15;3.78;;;12.40;83.80;;;;;;5045411;28;20041;-79
2022/11/25 09:03:33;;;;;;;5.47;3.78;;;12.50;83.90;;;;;;5043519;28;20041;-79
2022/11/25 09:05:59;;;;;;;5.65;4.13;;;12.60;83.80;;;;;;5044471;28;20043;-79
2022/11/25 09:08:25;;;;;;;6.70;4.10;;;12.60;83.70;;;;;;5043572;28;20025;-78
2022/11/25 09:10:51;;;;;;;8.85;4.07;;;12.70;83.10;;;;;;5043762;28;20051;-78
2022/11/25 09:13:16;;;;;;;9.68;3.95;;;12.70;83.20;;;;;;5043592;28;20052;-79
2022/11/25 09:15:45;;;;;;;5.00;3.28;;;12.80;83.30;;;;;;5063554;28;20664;-83
2022/11/25 09:18:11;;;;;;;4.97;3.60;;;12.90;83.50;;;;;;5064653;28;20028;-84
2022/11/25 09:20:39;;;;;;;5.00;3.10;;;13.00;83.50;;;;;;5070463;28;20045;-85
2022/11/25 09:23:06;;;;;;;5.10;3.20;;;13.10;83.30;;;;;;5071642;28;20041;-85
2022/11/25 09:25:33;;;;;;;4.95;3.13;;;13.10;83.10;;;;;;5070454;28;20476;-84
2022/11/25 09:27:58;;;;;;;5.80;4.03;;;13.20;83.00;;;;;;5063025;28;20462;-84
2022/11/25 09:30:25;;;;;;;5.40;4.03;;;13.10;82.30;;;;;;5061149;28;20033;-85
2022/11/25 09:32:53;;;;;;;4.93;3.55;;;13.10;81.60;;;;;;5068315;28;20038;-84
2022/11/25 09:35:19;;;;;;;6.68;3.33;;;13.10;82.40;;;;;;5072616;28;20039;-84
2022/11/25 09:37:45;;;;;;;5.53;3.38;;;13.20;82.70;;;;;;5070038;28;20023;-84
2022/11/25 09:40:28;;;;;;;4.88;3.50;;;13.30;82.80;;;;;;5065125;28;20032;-84
2022/11/25 09:49:32;;;;;;;5.18;3.42;;;13.60;82.80;;;;;;5060537;28;20094;-84
2022/11/25 09:52:15;;;;;;;5.20;3.20;;;13.80;83.40;;;;;;5062196;28;20052;-86
2022/11/25 09:54:46;;;;;;;3.85;2.55;;;13.90;83.40;;;;;;5068409;28;20070;-85
2022/11/25 09:57:30;;;;;;;4.15;2.70;;;14.00;83.40;;;;;;5056823;28;20046;-85
2022/11/25 10:00:09;;;;;;;4.30;2.92;;;14.00;83.30;;;;;;5066881;28;20040;-82
2022/11/25 10:02:43;;;;;;;7.75;3.17;;;14.10;83.40;;;;;;5061873;28;20037;-77
2022/11/25 10:05:12;;;;;;;4.30;2.90;;;14.20;83.30;;;;;;5066428;28;20480;-80
2022/11/25 10:07:43;;;;;;;4.47;2.72;;;14.30;83.30;;;;;;5051540;28;20397;-80
2022/11/25 10:10:22;;;;;;;4.78;3.30;;;14.40;83.10;;;;;;5053555;28;20410;-80
2022/11/25 10:12:49;;;;;;;5.30;2.83;;;14.60;82.80;;;;;;5070270;28;20028;-81
2022/11/25 10:15:38;;;;;;;4.13;2.97;;;14.60;82.40;;;;;;5066891;28;20036;-80
2022/11/25 10:18:12;;;;;;;6.55;3.47;;;14.70;81.90;;;;;;5063644;28;20423;-81
2022/11/25 10:20:41;;;;;;;3.92;3.15;;;14.80;82.00;;;;;;5056691;28;20040;-83
2022/11/25 10:23:19;;;;;;;4.60;3.65;;;14.80;82.00;;;;;;5058121;28;20037;-83
2022/11/25 10:25:47;;;;;;;4.78;3.60;;;14.90;81.70;;;;;;5065836;28;20158;-82
2022/11/25 10:28:28;;;;;;;6.82;3.88;;;14.90;81.70;;;;;;5069148;28;20028;-82
2022/11/25 10:30:59;;;;;;;4.93;3.30;;;15.00;81.60;;;;;;5067570;28;20112;-82
2022/11/25 10:33:43;;;;;;;3.95;3.17;;;15.00;81.40;;;;;;5056845;28;20540;-82
2022/11/25 10:36:17;;;;;;;4.88;3.60;;;15.00;81.70;;;;;;5071693;28;20044;-81
2022/11/25 10:38:46;;;;;;;4.72;3.47;;;15.10;81.80;;;;;;5069192;28;20029;-82
2022/11/25 10:41:17;;;;;;;6.32;3.92;;;15.20;81.90;;;;;;5072954;28;20053;-81
2022/11/25 10:43:46;;;;;;;6.82;3.10;;;15.30;81.60;;;;;;5054753;28;20036;-82
2022/11/25 10:46:46;;;;;;;4.85;2.92;;;15.40;81.70;;;;;;5047761;28;20047;-82
2022/11/25 10:49:34;;;;;;;5.35;3.22;;;15.40;81.60;;;;;;5070580;28;20377;-81
2022/11/25 10:51:59;;;;;;;5.13;3.17;;;15.50;81.80;;;;;;5061337;28;20087;-80
2022/11/25 10:54:27;;;;;;;3.90;3.08;;;15.60;81.70;;;;;;5073075;28;20469;-79
2022/11/25 10:56:56;;;;;;;3.67;3.00;;;15.60;81.10;;;;;;5062015;28;20025;-79
2022/11/25 10:59:38;;;;;;;7.17;3.63;;;15.70;81.30;;;;;;5055376;28;20028;-80
2022/11/25 11:02:33;;;;;;;3.70;2.88;;;15.50;80.60;;;;;;5067817;28;20082;-82
2022/11/25 11:05:03;;;;;;;5.45;3.03;;;15.50;81.50;;;;;;5022702;28;20497;-83
2022/11/25 11:07:32;;;;;;;5.57;2.92;;;15.50;81.80;;;;;;5064947;28;20124;-83
2022/11/25 11:10:13;;;;;;;5.50;3.38;;;15.50;82.00;;;;;;5070762;28;20035;-82
2022/11/25 11:12:55;;;;;;;4.22;3.40;;;15.60;82.10;;;;;;5065924;28;20473;-82
2022/11/25 11:15:25;;;;;;;6.65;3.42;;;15.60;82.10;;;;;;5059021;28;20538;-82
2022/11/25 11:17:54;;;;;;;4.93;3.40;;;15.60;82.40;;;;;;5064902;28;20020;-76
2022/11/25 11:20:30;;;;;;;8.15;4.07;;;15.60;82.50;;;;;;5057943;28;20471;-77
2022/11/25 11:23:12;;;;;;;7.78;4.75;;;15.60;82.50;;;;;;5054140;28;20427;-77
2022/11/25 11:25:40;;;;;;;4.57;3.05;;;15.50;82.50;;;;;;5064878;28;20032;-77
2022/11/25 11:28:32;;;;;;;10.80;3.75;;;15.50;82.70;;;;;;5065462;28;20092;-77
2022/11/25 11:31:00;;;;;;;6.18;4.32;;;15.20;83.20;;;;;;5065780;28;20032;-77
2022/11/25 11:33:25;;;;;;;6.40;4.80;;;14.90;83.60;;;;;;5068834;28;20074;-78
2022/11/25 11:35:57;;;;;;;7.18;4.18;;;14.60;84.30;;;;;;5068108;28;20032;-78
2022/11/25 11:38:34;;;;;;;5.80;3.97;;;14.40;85.60;;;;;;5062779;28;20369;-77
2022/11/25 11:41:19;;;;;;;7.13;4.50;;;14.40;85.80;;;;;;5065781;28;20155;-77
2022/11/25 11:44:13;;;;;;;6.40;4.47;;;14.20;86.30;;;;;;5064761;28;20025;-77
2022/11/25 11:46:45;;;;;;;5.22;3.40;;;14.30;86.50;;;;;;5068627;28;20025;-77
2022/11/25 11:49:23;;;;;;;3.58;2.85;;;14.40;86.40;;;;;;5067774;28;20528;-77
2022/11/25 11:52:14;;;;;;;4.60;3.58;;;14.60;86.10;;;;;;5071445;28;20180;-77
2022/11/25 11:54:48;;;;;;;4.18;3.58;;;14.80;86.50;;;;;;5059650;28;20139;-77
2022/11/25 11:57:33;;;;;;;5.47;3.95;;;14.90;85.50;;;;;;5065267;28;20033;-77
2022/11/25 12:00:12;;;;;;;5.85;3.40;;;14.90;85.30;;;;;;5069524;28;20056;-77
2022/11/25 12:02:50;;;;;;;5.80;3.92;;;15.30;85.10;;;;;;5062087;28;20091;-78
2022/11/25 12:05:25;;;;;;;4.93;3.83;;;15.50;84.50;;;;;;5062339;28;20029;-78
2022/11/25 12:07:56;;;;;;;4.20;3.22;;;15.60;84.20;;;;;;5063542;28;20075;-78
2022/11/25 12:10:33;;;;;;;4.60;3.10;;;15.70;83.90;;;;;;5060666;28;20131;-78
2022/11/25 12:13:12;;;;;;;4.45;3.67;;;16.00;83.60;;;;;;5067581;28;20029;-78
2022/11/25 12:16:06;;;;;;;3.65;3.03;;;16.20;82.90;;;;;;5067903;28;20020;-78
2022/11/25 12:18:38;;;;;;;5.22;3.65;;;16.50;82.70;;;;;;5061589;28;20017;-78
2022/11/25 12:21:09;;;;;;;8.00;3.85;;;16.70;82.40;;;;;;5061965;28;20052;-78
2022/11/25 12:23:54;;;;;;;4.18;3.25;;;17.00;82.00;;;;;;5061686;28;20488;-77
2022/11/25 12:26:28;;;;;;;5.25;3.20;;;17.40;80.90;;;;;;5062755;28;20453;-77
2022/11/25 12:29:13;;;;;;;4.85;3.20;;;17.60;79.60;;;;;;5060977;28;20021;-77
2022/11/25 12:31:44;;;;;;;5.72;3.80;;;17.80;79.10;;;;;;5061761;28;20089;-77
2022/11/25 12:34:33;;;;;;;4.55;3.50;;;17.90;79.00;;;;;;5063174;28;20036;-78
2022/11/25 12:37:11;;;;;;;5.05;3.90;;;17.90;78.50;;;;;;5061062;28;20108;-77
2022/11/25 12:40:03;;;;;;;7.22;4.30;;;18.10;77.60;;;;;;5061074;28;20025;-77
2022/11/25 12:42:31;;;;;;;3.97;3.55;;;18.50;78.80;;;;;;5058684;28;20064;-77
2022/11/25 12:45:23;;;;;;;6.55;4.43;;;18.70;77.20;;;;;;5062159;28;20017;-77
2022/11/25 12:47:50;;;;;;;5.18;4.25;;;19.00;74.50;;;;;;5044750;28;20064;-77
2022/11/25 12:50:54;;;;;;;4.63;3.83;;;19.10;74.40;;;;;;5078606;22;20052;-77
2022/11/25 12:53:29;;;;;;;4.45;3.80;;;18.90;74.60;;;;;;5074147;28;20115;-77
2022/11/25 12:55:58;;;;;;;5.90;4.60;;;19.00;74.80;;;;;;5078131;28;20024;-78
2022/11/25 12:58:39;;;;;;;5.32;3.75;;;18.90;72.60;;;;;;5078104;28;20028;-77
2022/11/25 13:01:24;;;;;;;4.85;3.47;;;18.60;74.30;;;;;;5071793;28;20028;-77
2022/11/25 13:04:27;;;;;;;5.35;3.53;;;18.40;75.10;;;;;;5074084;28;20443;-77
2022/11/25 13:06:53;;;;;;;3.53;3.22;;;18.30;75.80;;;;;;5078039;28;20040;-77
2022/11/25 13:09:33;;;;;;;5.80;3.80;;;18.20;75.60;;;;;;5077610;28;20028;-77
2022/11/25 13:12:17;;;;;;;9.30;3.35;;;18.00;75.80;;;;;;5057887;28;20709;-77